»·PEaware :: N5MW KLGB-KBFL

N5MW :: KLGB-KBFL

FLIGHT INFORMATION

Flight Status: Arrived
Operator: Privately registered:
United States
More flights under this callsign
Pilot: Max W. (2591)
Aircraft: SOCATA TBM-900
(TBM9)
More flights by this aircraft type
Origin: KLGB Long Beach
United States
Destination: KBFL Meadows
United States
More flights between these airports :: More routes between these airports
Route: +SLI V459 LHS FASTO2
File this flight plan on PilotEdge
Remarks:
Altitude:
(Current/Filed)
16,000ft
Speed:
(Current/Filed)
450kts
Departed: 26-Aug-18 11:25 AM
Arrived: 26-Aug-18 12:06 PM
Distance/Time
Traveled:
107nm/0:40
Distance/Time
To Go:
Arrived

Flight Plot

Page will automatically refresh every two minutes.

Flight plan parsing failed; only flown route is shown


Map Options




Map Legend


Flown Route
Filed Route
Departure Airport
Arrival Airport
Navaid (VOR, NDB)
Fix

Horizontal Profiles

Position Reports

Time Latitude Longitude Heading Altitude Ground
Speed
26-Aug-18 10:56 33.812728 -118.162214 59 52ft 0kts
26-Aug-18 10:57 33.812728 -118.162214 59 52ft 0kts
26-Aug-18 10:58 33.812728 -118.162214 59 52ft 0kts
26-Aug-18 10:59 33.812728 -118.162214 59 52ft 0kts
26-Aug-18 11:00 33.812728 -118.162214 59 52ft 0kts
26-Aug-18 11:01 33.812728 -118.162214 59 52ft 0kts
26-Aug-18 11:02 33.812728 -118.162214 59 52ft 0kts
26-Aug-18 11:03 33.812728 -118.162214 59 52ft 0kts
26-Aug-18 11:04 33.812728 -118.162214 59 52ft 0kts
26-Aug-18 11:05 33.812728 -118.162214 59 52ft 0kts
26-Aug-18 11:06 33.812728 -118.162214 59 52ft 0kts
26-Aug-18 11:07 33.812728 -118.162214 59 52ft 0kts
26-Aug-18 11:08 33.812728 -118.162214 59 52ft 0kts
26-Aug-18 11:09 33.812728 -118.162214 59 52ft 0kts
26-Aug-18 11:10 33.812728 -118.162214 59 52ft 0kts
26-Aug-18 11:11 33.812728 -118.162214 59 52ft 0kts
26-Aug-18 11:12 33.812728 -118.162214 59 52ft 0kts
26-Aug-18 11:13 33.812728 -118.162214 59 52ft 0kts
26-Aug-18 11:14 33.812728 -118.162214 59 52ft 0kts
26-Aug-18 11:15 33.812728 -118.162214 59 52ft 0kts
26-Aug-18 11:16 33.812728 -118.162214 59 52ft 0kts
26-Aug-18 11:17 33.812772 -118.162151 45 52ft 0kts
26-Aug-18 11:18 33.812772 -118.162151 45 52ft 0kts
26-Aug-18 11:19 33.813120 -118.157188 87 46ft 14kts
26-Aug-18 11:20 33.813088 -118.151209 95 39ft 18kts
26-Aug-18 11:21 33.813201 -118.148034 8 34ft 0kts
26-Aug-18 11:22 33.813201 -118.148034 8 34ft 0kts
26-Aug-18 11:23 33.813201 -118.148034 8 34ft 0kts
26-Aug-18 11:24 33.813201 -118.148034 8 34ft 0kts
26-Aug-18 11:25 33.813823 -118.148405 272 36ft 0kts
26-Aug-18 11:26 33.813453 -118.167846 273 570ft 120kts
26-Aug-18 11:27 33.792392 -118.203575 231 2621ft 147kts
26-Aug-18 11:28 33.765202 -118.240863 231 4657ft 152kts
26-Aug-18 11:29 33.736975 -118.279764 231 6931ft 158kts
26-Aug-18 11:30 33.706278 -118.272127 79 9074ft 159kts
26-Aug-18 11:31 33.720452 -118.226922 61 10924ft 158kts
26-Aug-18 11:32 33.738118 -118.178570 60 12956ft 166kts
26-Aug-18 11:33 33.758200 -118.123776 61 13015ft 204kts
26-Aug-18 11:34 33.792658 -118.066769 0 12984ft 225kts
26-Aug-18 11:35 33.851600 -118.094324 337 12985ft 231kts
26-Aug-18 11:36 33.899812 -118.121779 338 15374ft 179kts
26-Aug-18 11:37 33.945784 -118.148137 338 15991ft 201kts
26-Aug-18 11:38 33.995664 -118.176887 337 15982ft 215kts
26-Aug-18 11:39 34.049815 -118.208149 337 15979ft 219kts
26-Aug-18 11:40 34.104300 -118.239642 337 15980ft 220kts
26-Aug-18 11:41 34.159274 -118.271461 337 15984ft 221kts
26-Aug-18 11:42 34.214470 -118.303449 337 15983ft 221kts
26-Aug-18 11:43 34.269796 -118.335569 337 15983ft 221kts
26-Aug-18 11:44 34.325076 -118.367710 337 15983ft 221kts
26-Aug-18 11:45 34.380218 -118.399816 337 15982ft 221kts
26-Aug-18 11:46 34.435583 -118.432101 337 15982ft 221kts
26-Aug-18 11:47 34.490976 -118.464446 337 15984ft 227kts
26-Aug-18 11:48 34.551419 -118.499786 337 15986ft 251kts
26-Aug-18 11:49 34.614796 -118.536925 337 15980ft 252kts
26-Aug-18 11:50 34.676601 -118.573201 337 15980ft 247kts
26-Aug-18 11:51 34.730978 -118.625798 324 15980ft 251kts
26-Aug-18 11:52 34.783387 -118.679145 323 15979ft 252kts
26-Aug-18 11:53 34.835455 -118.732294 324 15897ft 228kts
26-Aug-18 11:54 34.881394 -118.779210 324 14841ft 216kts
26-Aug-18 11:55 34.928272 -118.827168 323 13851ft 226kts
26-Aug-18 11:56 34.984516 -118.843828 21 12857ft 247kts
26-Aug-18 11:57 35.049992 -118.808955 22 11583ft 265kts
26-Aug-18 11:58 35.116298 -118.774677 10 9606ft 269kts
26-Aug-18 11:59 35.186498 -118.797690 342 7041ft 253kts
26-Aug-18 12:00 35.244525 -118.826353 313 6099ft 208kts
26-Aug-18 12:01 35.282188 -118.872832 316 4442ft 172kts
26-Aug-18 12:02 35.313069 -118.910465 317 3668ft 150kts
26-Aug-18 12:03 35.342169 -118.945854 316 2916ft 153kts
26-Aug-18 12:04 35.371799 -118.981658 317 2103ft 138kts
26-Aug-18 12:05 35.400435 -119.016205 317 1359ft 133kts
26-Aug-18 12:06 35.423488 -119.043700 318 754ft 98kts
26-Aug-18 12:07 35.436232 -119.057911 58 496ft 20kts
26-Aug-18 12:08 35.436847 -119.054752 20 496ft 6kts
26-Aug-18 12:09 35.436907 -119.054733 22 496ft 0kts

Navigation Log

Ident Type
Flight plan parsing failed, navigation log unavailable